createdAt,value
2018-07-09T00:03:29.752Z,38.50
2018-07-09T00:08:32.887Z,38.10
2018-07-09T00:13:37.013Z,38.40
2018-07-09T00:18:40.068Z,38.50
2018-07-09T00:23:43.707Z,38.60
2018-07-09T00:28:46.885Z,39.00
2018-07-09T00:33:49.993Z,39.10
2018-07-09T00:38:53.085Z,39.30
2018-07-09T00:43:56.216Z,39.20
2018-07-09T00:48:59.321Z,39.10
2018-07-09T00:54:02.437Z,39.70
2018-07-09T00:59:05.530Z,39.30
2018-07-09T01:04:08.838Z,39.40
2018-07-09T01:09:11.972Z,39.30
2018-07-09T01:14:15.164Z,39.40
2018-07-09T01:19:18.169Z,39.40
2018-07-09T01:24:21.262Z,39.40
2018-07-09T01:29:24.365Z,39.40
2018-07-09T01:34:28.505Z,39.50
2018-07-09T01:39:31.615Z,39.60
2018-07-09T01:44:34.713Z,39.50
2018-07-09T01:49:38.033Z,39.70
2018-07-09T01:54:41.119Z,39.50
2018-07-09T01:59:44.221Z,39.40
2018-07-09T02:04:47.349Z,39.40
2018-07-09T02:09:50.398Z,39.30
2018-07-09T02:19:56.669Z,39.50
2018-07-09T02:24:59.984Z,39.50
2018-07-09T02:30:03.169Z,39.40
2018-07-09T02:35:06.927Z,39.50
2018-07-09T02:40:10.332Z,39.70
2018-07-09T02:45:13.429Z,39.50
2018-07-09T02:50:16.533Z,39.70
2018-07-09T02:55:19.639Z,39.60
2018-07-09T03:00:22.801Z,39.60
2018-07-09T03:05:26.256Z,39.50
2018-07-09T03:10:29.365Z,39.70
2018-07-09T03:15:32.449Z,39.80
2018-07-09T03:20:35.584Z,40.80
2018-07-09T03:25:39.705Z,41.40
2018-07-09T03:30:42.925Z,41.30
2018-07-09T03:35:46.121Z,42.10
2018-07-09T03:40:49.242Z,42.40
2018-07-09T03:45:52.351Z,43.00
2018-07-09T03:50:55.433Z,43.50
2018-07-09T03:55:58.537Z,43.70
2018-07-09T04:01:01.665Z,43.00
2018-07-09T04:06:04.783Z,42.80
2018-07-09T04:11:08.065Z,43.30
2018-07-09T04:16:11.173Z,44.20
2018-07-09T04:21:14.488Z,43.00
2018-07-09T04:26:17.644Z,43.40
2018-07-09T04:31:20.713Z,43.90
2018-07-09T04:36:23.825Z,43.80
2018-07-09T04:41:26.865Z,43.70
2018-07-09T04:51:32.900Z,44.50
2018-07-09T04:56:36.006Z,44.30
2018-07-09T05:01:39.101Z,44.90
2018-07-09T05:06:42.325Z,44.50
2018-07-09T05:11:45.509Z,44.80
2018-07-09T05:16:48.654Z,45.60
2018-07-09T05:21:51.736Z,45.20
2018-07-09T05:26:54.831Z,45.90
2018-07-09T05:31:57.942Z,46.40
2018-07-09T05:37:01.481Z,46.40
2018-07-09T05:47:14.177Z,46.20
2018-07-09T05:52:17.331Z,46.60
2018-07-09T05:57:20.433Z,46.50
2018-07-09T06:02:23.569Z,46.20
2018-07-09T06:07:26.645Z,46.50
2018-07-09T06:12:30.345Z,45.80
2018-07-09T06:32:42.182Z,47.00
2018-07-09T06:37:45.515Z,47.10
2018-07-09T06:42:48.610Z,47.50
2018-07-09T06:57:57.525Z,46.60
2018-07-09T07:03:00.645Z,46.70
2018-07-09T07:08:03.728Z,46.70
2018-07-09T07:13:06.846Z,46.90
2018-07-09T07:18:09.945Z,46.80
2018-07-09T09:19:48.681Z,41.20
2018-07-09T09:24:51.797Z,42.30
2018-07-09T09:29:55.184Z,41.90
2018-07-09T09:34:58.382Z,41.70
2018-07-09T09:40:01.528Z,42.20
2018-07-09T09:45:04.582Z,41.70
2018-07-09T09:50:07.661Z,41.90
2018-07-09T09:55:10.782Z,42.00
2018-07-09T10:00:13.909Z,41.70
2018-07-09T10:05:17.027Z,41.20
2018-07-09T10:10:20.087Z,40.90
2018-07-09T10:15:23.230Z,40.70
2018-07-09T10:20:26.354Z,40.30
2018-07-09T10:25:29.373Z,39.40
2018-07-09T10:30:32.560Z,38.90
2018-07-09T10:35:35.814Z,38.30
2018-07-09T10:40:38.934Z,37.40
2018-07-09T10:45:42.056Z,36.90
2018-07-09T10:50:45.145Z,36.40
2018-07-09T10:55:48.262Z,36.00
2018-07-09T11:00:51.454Z,36.30
2018-07-09T11:05:54.469Z,36.20
2018-07-09T11:10:57.580Z,36.40
2018-07-09T11:16:00.733Z,36.00
2018-07-09T11:21:03.814Z,35.40
2018-07-09T11:26:07.249Z,34.60
2018-07-09T11:31:10.411Z,34.70
2018-07-09T11:36:13.416Z,34.60
2018-07-09T11:41:16.629Z,34.50
2018-07-09T11:46:19.776Z,34.80
2018-07-09T11:51:22.843Z,34.80
2018-07-09T11:56:25.955Z,34.50
2018-07-09T12:01:29.059Z,33.90
2018-07-09T12:06:32.171Z,33.70
2018-07-09T12:11:35.364Z,33.30
2018-07-09T12:16:38.401Z,32.80
2018-07-09T12:21:41.513Z,32.70
2018-07-09T12:26:44.593Z,32.60
2018-07-09T12:31:47.602Z,32.60
2018-07-09T12:36:50.803Z,32.40
2018-07-09T12:41:53.917Z,33.20
2018-07-09T12:46:57.041Z,33.30
2018-07-09T12:52:00.190Z,33.00
2018-07-09T12:57:03.217Z,32.70
2018-07-09T13:02:06.345Z,32.20
2018-07-09T13:07:09.527Z,31.30
2018-07-09T13:12:12.573Z,31.20
2018-07-09T13:17:15.673Z,30.10
2018-07-09T13:22:18.969Z,30.00
2018-07-09T13:27:22.093Z,32.50
2018-07-09T13:32:25.342Z,30.60
2018-07-09T13:37:29.539Z,30.10
2018-07-09T13:42:32.641Z,30.20
2018-07-09T13:47:35.765Z,30.30
2018-07-09T13:52:38.857Z,29.80
2018-07-09T13:57:41.959Z,29.70
2018-07-09T14:02:45.061Z,29.60
2018-07-09T14:07:48.168Z,29.30
2018-07-09T14:12:51.276Z,29.60
2018-07-09T14:17:54.456Z,29.70
2018-07-09T14:22:57.824Z,30.00
2018-07-09T14:33:04.073Z,29.10
2018-07-09T14:38:07.224Z,28.60
2018-07-09T14:43:10.326Z,28.20
2018-07-09T14:48:13.423Z,28.00
2018-07-09T14:53:16.509Z,28.10
2018-07-09T14:58:19.616Z,28.00
2018-07-09T15:03:22.726Z,27.70
2018-07-09T15:08:25.839Z,27.40
2018-07-09T15:13:28.850Z,26.90
2018-07-09T15:23:34.693Z,24.70
2018-07-09T15:33:40.729Z,24.50
2018-07-09T15:43:59.518Z,22.30
2018-07-09T15:49:02.590Z,22.30
2018-07-09T15:54:05.697Z,22.30
2018-07-09T15:59:08.754Z,22.70
2018-07-09T16:04:11.781Z,21.60
2018-07-09T16:14:17.904Z,22.30
2018-07-09T16:19:20.989Z,22.10
2018-07-09T16:24:24.076Z,22.40
2018-07-09T16:29:27.168Z,23.30
2018-07-09T16:34:30.137Z,24.20
2018-07-09T16:39:33.182Z,25.00
2018-07-09T16:44:36.169Z,25.70
2018-07-09T16:49:39.208Z,26.30
2018-07-09T16:54:42.371Z,26.80
2018-07-09T16:59:45.357Z,27.40
2018-07-09T17:04:48.528Z,27.70
2018-07-09T17:09:51.632Z,28.30
2018-07-09T17:14:54.743Z,28.00
2018-07-09T17:19:57.820Z,28.20
2018-07-09T17:25:00.897Z,28.20
2018-07-09T17:35:06.884Z,28.70
2018-07-09T17:40:09.901Z,29.40
2018-07-09T17:45:12.969Z,29.50
2018-07-09T17:50:16.001Z,30.00
2018-07-09T17:55:19.193Z,29.90
2018-07-09T18:00:22.278Z,29.80
2018-07-09T18:05:25.282Z,29.90
2018-07-09T18:10:28.330Z,30.30
2018-07-09T18:15:31.411Z,31.00
2018-07-09T18:20:34.529Z,31.30
2018-07-09T18:25:37.613Z,31.70
2018-07-09T18:30:40.639Z,31.60
2018-07-09T18:35:43.809Z,31.40
2018-07-09T18:40:46.760Z,31.70
2018-07-09T18:45:49.801Z,32.40
2018-07-09T18:50:52.801Z,32.30
2018-07-09T18:55:55.886Z,32.50
2018-07-09T19:00:58.907Z,32.50
2018-07-09T19:06:13.115Z,33.00
2018-07-09T19:11:16.181Z,32.80
2018-07-09T19:16:19.356Z,32.60
2018-07-09T19:21:39.933Z,32.80
2018-07-09T19:26:42.509Z,32.10
2018-07-09T19:31:44.649Z,31.80
2018-07-09T19:36:46.898Z,31.40
2018-07-09T19:41:49.031Z,30.80
2018-07-09T19:46:51.183Z,30.80
2018-07-09T19:51:53.442Z,31.50
2018-07-09T19:56:55.601Z,31.90
2018-07-09T20:01:57.761Z,31.70
2018-07-09T20:06:59.930Z,32.00
2018-07-09T20:12:07.441Z,33.00
2018-07-09T20:17:15.123Z,33.10
2018-07-09T20:22:17.351Z,33.20
2018-07-09T20:27:19.518Z,33.60
2018-07-09T20:32:21.716Z,33.90
2018-07-09T20:37:23.879Z,33.70
2018-07-09T20:42:26.085Z,33.20
2018-07-09T20:47:28.292Z,33.00
2018-07-09T20:57:32.905Z,32.80
2018-07-09T21:02:35.076Z,31.90
2018-07-09T21:07:38.241Z,31.80
2018-07-09T21:17:48.450Z,32.40
2018-07-09T21:22:50.609Z,32.20
2018-07-09T21:27:52.789Z,32.20
2018-07-09T21:32:54.959Z,32.30
2018-07-09T21:37:57.385Z,32.30
2018-07-09T21:42:59.430Z,32.40
2018-07-09T21:48:10.563Z,32.40
2018-07-09T21:53:04.186Z,32.50
2018-07-09T21:58:06.322Z,32.60
2018-07-09T22:03:09.443Z,32.30
2018-07-09T22:08:11.625Z,32.70
2018-07-09T22:18:16.202Z,32.90
2018-07-09T22:28:20.773Z,33.10
2018-07-09T22:33:23.913Z,33.20
2018-07-09T22:38:27.044Z,33.20
2018-07-09T22:43:41.561Z,33.30
2018-07-09T22:53:47.616Z,33.40
2018-07-09T22:58:50.709Z,33.50
2018-07-09T23:03:53.924Z,33.60
2018-07-09T23:09:10.963Z,33.70
2018-07-09T23:14:53.082Z,33.80
2018-07-09T23:22:12.411Z,33.80
2018-07-09T23:27:14.777Z,33.90
2018-07-09T23:32:16.974Z,34.00
2018-07-09T23:37:19.142Z,34.40
2018-07-09T23:42:21.319Z,34.00
2018-07-09T23:47:23.489Z,34.60
2018-07-09T23:52:25.664Z,34.40
2018-07-09T23:59:50.320Z,34.00
